sensor_id;sensor_type;location;lat;lon;timestamp;P1;durP1;ratioP1;P2;durP2;ratioP2
69246;SDS011;56358;56.328;43.992;2023-12-22T00:00:55;12.48;;;5.35;;
69246;SDS011;56358;56.328;43.992;2023-12-22T00:02:55;10.05;;;5.07;;
69246;SDS011;56358;56.328;43.992;2023-12-22T00:04:56;8.55;;;4.18;;
69246;SDS011;56358;56.328;43.992;2023-12-22T00:06:57;10.30;;;5.07;;
69246;SDS011;56358;56.328;43.992;2023-12-22T00:08:58;11.90;;;5.68;;
69246;SDS011;56358;56.328;43.992;2023-12-22T00:10:58;10.32;;;4.65;;
69246;SDS011;56358;56.328;43.992;2023-12-22T00:13:00;9.57;;;4.75;;
69246;SDS011;56358;56.328;43.992;2023-12-22T00:15:00;13.07;;;5.68;;
69246;SDS011;56358;56.328;43.992;2023-12-22T00:17:01;9.52;;;5.13;;
69246;SDS011;56358;56.328;43.992;2023-12-22T00:19:02;9.77;;;4.88;;
69246;SDS011;56358;56.328;43.992;2023-12-22T00:21:02;10.27;;;4.90;;
69246;SDS011;56358;56.328;43.992;2023-12-22T00:23:03;11.13;;;4.60;;
69246;SDS011;56358;56.328;43.992;2023-12-22T00:25:04;10.68;;;4.63;;
69246;SDS011;56358;56.328;43.992;2023-12-22T00:27:05;9.38;;;4.88;;
69246;SDS011;56358;56.328;43.992;2023-12-22T00:29:06;12.40;;;5.18;;
69246;SDS011;56358;56.328;43.992;2023-12-22T00:31:07;9.70;;;4.57;;
69246;SDS011;56358;56.328;43.992;2023-12-22T00:33:08;12.57;;;4.97;;
69246;SDS011;56358;56.328;43.992;2023-12-22T00:35:09;11.05;;;5.32;;
69246;SDS011;56358;56.328;43.992;2023-12-22T00:37:10;10.23;;;5.05;;
69246;SDS011;56358;56.328;43.992;2023-12-22T00:39:12;11.27;;;5.00;;
69246;SDS011;56358;56.328;43.992;2023-12-22T00:41:13;10.90;;;4.85;;
69246;SDS011;56358;56.328;43.992;2023-12-22T00:43:14;12.98;;;5.38;;
69246;SDS011;56358;56.328;43.992;2023-12-22T00:45:14;10.27;;;5.20;;
69246;SDS011;56358;56.328;43.992;2023-12-22T00:47:15;10.13;;;4.78;;
69246;SDS011;56358;56.328;43.992;2023-12-22T00:49:16;10.57;;;4.93;;
69246;SDS011;56358;56.328;43.992;2023-12-22T00:51:18;10.88;;;5.05;;
69246;SDS011;56358;56.328;43.992;2023-12-22T00:53:19;10.40;;;5.30;;
69246;SDS011;56358;56.328;43.992;2023-12-22T00:55:19;9.38;;;4.82;;
69246;SDS011;56358;56.328;43.992;2023-12-22T00:57:20;9.38;;;4.90;;
69246;SDS011;56358;56.328;43.992;2023-12-22T00:59:21;9.05;;;4.22;;
69246;SDS011;56358;56.328;43.992;2023-12-22T01:01:21;10.05;;;5.03;;
69246;SDS011;56358;56.328;43.992;2023-12-22T01:03:22;9.95;;;5.15;;
69246;SDS011;56358;56.328;43.992;2023-12-22T01:05:23;11.02;;;4.85;;
69246;SDS011;56358;56.328;43.992;2023-12-22T01:07:23;11.60;;;5.20;;
69246;SDS011;56358;56.328;43.992;2023-12-22T01:09:25;10.23;;;5.32;;
69246;SDS011;56358;56.328;43.992;2023-12-22T01:11:26;11.18;;;5.43;;
69246;SDS011;56358;56.328;43.992;2023-12-22T01:13:27;10.05;;;4.50;;
69246;SDS011;56358;56.328;43.992;2023-12-22T01:15:28;10.45;;;4.95;;
69246;SDS011;56358;56.328;43.992;2023-12-22T01:17:28;9.30;;;4.78;;
69246;SDS011;56358;56.328;43.992;2023-12-22T01:19:29;11.35;;;4.78;;
69246;SDS011;56358;56.328;43.992;2023-12-22T01:21:30;10.45;;;5.15;;
69246;SDS011;56358;56.328;43.992;2023-12-22T01:23:31;10.38;;;4.90;;
69246;SDS011;56358;56.328;43.992;2023-12-22T01:25:32;10.63;;;4.97;;
69246;SDS011;56358;56.328;43.992;2023-12-22T01:27:32;12.13;;;4.75;;
69246;SDS011;56358;56.328;43.992;2023-12-22T01:29:33;13.45;;;4.97;;
69246;SDS011;56358;56.328;43.992;2023-12-22T01:31:33;10.80;;;5.00;;
69246;SDS011;56358;56.328;43.992;2023-12-22T01:33:34;9.90;;;4.72;;
69246;SDS011;56358;56.328;43.992;2023-12-22T01:35:35;10.40;;;5.28;;
69246;SDS011;56358;56.328;43.992;2023-12-22T01:37:36;10.45;;;5.10;;
69246;SDS011;56358;56.328;43.992;2023-12-22T01:39:37;10.35;;;5.43;;
69246;SDS011;56358;56.328;43.992;2023-12-22T01:41:38;10.40;;;5.30;;
69246;SDS011;56358;56.328;43.992;2023-12-22T01:43:39;12.75;;;5.13;;
69246;SDS011;56358;56.328;43.992;2023-12-22T01:45:40;11.05;;;5.40;;
69246;SDS011;56358;56.328;43.992;2023-12-22T01:47:44;10.57;;;5.32;;
69246;SDS011;56358;56.328;43.992;2023-12-22T01:49:47;12.85;;;5.38;;
69246;SDS011;56358;56.328;43.992;2023-12-22T01:51:48;11.45;;;5.20;;
69246;SDS011;56358;56.328;43.992;2023-12-22T01:53:50;10.30;;;5.30;;
69246;SDS011;56358;56.328;43.992;2023-12-22T01:55:51;8.95;;;4.65;;
69246;SDS011;56358;56.328;43.992;2023-12-22T01:57:53;12.13;;;5.17;;
69246;SDS011;56358;56.328;43.992;2023-12-22T01:59:54;12.25;;;5.18;;
69246;SDS011;56358;56.328;43.992;2023-12-22T02:01:54;9.98;;;4.60;;
69246;SDS011;56358;56.328;43.992;2023-12-22T02:03:55;12.43;;;5.00;;
69246;SDS011;56358;56.328;43.992;2023-12-22T02:05:59;10.55;;;4.60;;
69246;SDS011;56358;56.328;43.992;2023-12-22T02:08:00;11.77;;;5.82;;
69246;SDS011;56358;56.328;43.992;2023-12-22T02:10:01;10.93;;;4.60;;
69246;SDS011;56358;56.328;43.992;2023-12-22T02:12:04;10.23;;;4.55;;
69246;SDS011;56358;56.328;43.992;2023-12-22T02:14:06;9.85;;;5.25;;
69246;SDS011;56358;56.328;43.992;2023-12-22T02:18:26;8.95;;;4.47;;
69246;SDS011;56358;56.328;43.992;2023-12-22T02:20:34;8.98;;;4.53;;
69246;SDS011;56358;56.328;43.992;2023-12-22T02:22:35;10.77;;;5.00;;
69246;SDS011;56358;56.328;43.992;2023-12-22T02:24:36;12.82;;;5.30;;
69246;SDS011;56358;56.328;43.992;2023-12-22T02:26:39;11.57;;;5.10;;
69246;SDS011;56358;56.328;43.992;2023-12-22T02:28:45;11.82;;;5.57;;
69246;SDS011;56358;56.328;43.992;2023-12-22T02:30:57;11.55;;;5.60;;
69246;SDS011;56358;56.328;43.992;2023-12-22T02:33:07;13.48;;;6.03;;
69246;SDS011;56358;56.328;43.992;2023-12-22T02:35:11;12.85;;;5.72;;
69246;SDS011;56358;56.328;43.992;2023-12-22T02:37:17;11.60;;;5.03;;
69246;SDS011;56358;56.328;43.992;2023-12-22T02:39:18;12.82;;;5.47;;
69246;SDS011;56358;56.328;43.992;2023-12-22T02:41:20;12.73;;;5.63;;
69246;SDS011;56358;56.328;43.992;2023-12-22T02:43:22;13.43;;;5.50;;
69246;SDS011;56358;56.328;43.992;2023-12-22T02:45:23;10.95;;;5.05;;
69246;SDS011;56358;56.328;43.992;2023-12-22T02:47:23;9.90;;;5.00;;
69246;SDS011;56358;56.328;43.992;2023-12-22T02:49:25;13.18;;;4.90;;
69246;SDS011;56358;56.328;43.992;2023-12-22T02:51:25;10.45;;;4.95;;
69246;SDS011;56358;56.328;43.992;2023-12-22T02:53:26;13.25;;;5.75;;
69246;SDS011;56358;56.328;43.992;2023-12-22T02:55:27;10.93;;;4.80;;
69246;SDS011;56358;56.328;43.992;2023-12-22T02:57:28;11.68;;;4.72;;
69246;SDS011;56358;56.328;43.992;2023-12-22T02:59:28;11.48;;;5.45;;
69246;SDS011;56358;56.328;43.992;2023-12-22T03:01:29;11.75;;;5.32;;
69246;SDS011;56358;56.328;43.992;2023-12-22T03:03:30;9.70;;;5.03;;
69246;SDS011;56358;56.328;43.992;2023-12-22T03:05:31;10.10;;;4.38;;
69246;SDS011;56358;56.328;43.992;2023-12-22T03:07:31;9.65;;;5.07;;
69246;SDS011;56358;56.328;43.992;2023-12-22T03:09:32;10.90;;;4.72;;
69246;SDS011;56358;56.328;43.992;2023-12-22T03:11:34;9.18;;;4.82;;
69246;SDS011;56358;56.328;43.992;2023-12-22T03:13:35;10.95;;;4.75;;
69246;SDS011;56358;56.328;43.992;2023-12-22T03:15:36;11.57;;;5.00;;
69246;SDS011;56358;56.328;43.992;2023-12-22T03:17:36;8.05;;;4.70;;
69246;SDS011;56358;56.328;43.992;2023-12-22T03:19:37;9.73;;;4.85;;
69246;SDS011;56358;56.328;43.992;2023-12-22T03:21:38;11.75;;;5.45;;
69246;SDS011;56358;56.328;43.992;2023-12-22T03:23:38;14.25;;;5.63;;
69246;SDS011;56358;56.328;43.992;2023-12-22T03:25:39;12.93;;;5.90;;
69246;SDS011;56358;56.328;43.992;2023-12-22T03:27:40;12.38;;;5.28;;
69246;SDS011;56358;56.328;43.992;2023-12-22T03:29:40;12.82;;;5.72;;
69246;SDS011;56358;56.328;43.992;2023-12-22T03:31:41;12.82;;;5.28;;
69246;SDS011;56358;56.328;43.992;2023-12-22T03:33:42;10.75;;;5.63;;
69246;SDS011;56358;56.328;43.992;2023-12-22T03:35:43;12.55;;;4.80;;
69246;SDS011;56358;56.328;43.992;2023-12-22T03:37:43;14.02;;;5.95;;
69246;SDS011;56358;56.328;43.992;2023-12-22T03:39:44;12.95;;;6.53;;
69246;SDS011;56358;56.328;43.992;2023-12-22T03:41:45;10.77;;;5.72;;
69246;SDS011;56358;56.328;43.992;2023-12-22T03:43:46;12.95;;;5.53;;
69246;SDS011;56358;56.328;43.992;2023-12-22T03:45:46;10.82;;;5.68;;
69246;SDS011;56358;56.328;43.992;2023-12-22T03:47:47;12.18;;;5.95;;
69246;SDS011;56358;56.328;43.992;2023-12-22T03:49:48;13.98;;;6.20;;
69246;SDS011;56358;56.328;43.992;2023-12-22T03:51:48;13.07;;;5.97;;
69246;SDS011;56358;56.328;43.992;2023-12-22T03:53:49;12.50;;;5.65;;
69246;SDS011;56358;56.328;43.992;2023-12-22T03:55:50;15.18;;;6.35;;
69246;SDS011;56358;56.328;43.992;2023-12-22T03:57:51;11.60;;;6.00;;
69246;SDS011;56358;56.328;43.992;2023-12-22T03:59:51;13.63;;;6.03;;
69246;SDS011;56358;56.328;43.992;2023-12-22T04:01:52;16.35;;;6.05;;
69246;SDS011;56358;56.328;43.992;2023-12-22T04:03:55;11.60;;;5.57;;
69246;SDS011;56358;56.328;43.992;2023-12-22T04:05:56;13.38;;;5.90;;
69246;SDS011;56358;56.328;43.992;2023-12-22T04:07:56;11.98;;;5.68;;
69246;SDS011;56358;56.328;43.992;2023-12-22T04:09:57;13.88;;;5.95;;
69246;SDS011;56358;56.328;43.992;2023-12-22T04:11:58;13.43;;;5.28;;
69246;SDS011;56358;56.328;43.992;2023-12-22T04:13:59;12.35;;;5.97;;
69246;SDS011;56358;56.328;43.992;2023-12-22T04:15:59;14.32;;;5.90;;
69246;SDS011;56358;56.328;43.992;2023-12-22T04:18:02;13.95;;;6.20;;
69246;SDS011;56358;56.328;43.992;2023-12-22T04:20:03;16.33;;;6.32;;
69246;SDS011;56358;56.328;43.992;2023-12-22T04:22:05;19.25;;;6.45;;
69246;SDS011;56358;56.328;43.992;2023-12-22T04:24:06;13.57;;;5.85;;
69246;SDS011;56358;56.328;43.992;2023-12-22T04:26:06;15.07;;;6.03;;
69246;SDS011;56358;56.328;43.992;2023-12-22T04:28:07;15.82;;;5.63;;
69246;SDS011;56358;56.328;43.992;2023-12-22T04:30:08;13.55;;;6.45;;
69246;SDS011;56358;56.328;43.992;2023-12-22T04:32:09;13.68;;;6.03;;
69246;SDS011;56358;56.328;43.992;2023-12-22T04:34:11;13.50;;;6.50;;
69246;SDS011;56358;56.328;43.992;2023-12-22T04:36:14;14.02;;;5.97;;
69246;SDS011;56358;56.328;43.992;2023-12-22T04:38:14;15.55;;;6.45;;
69246;SDS011;56358;56.328;43.992;2023-12-22T04:40:15;15.50;;;7.35;;
69246;SDS011;56358;56.328;43.992;2023-12-22T04:42:16;15.48;;;7.35;;
69246;SDS011;56358;56.328;43.992;2023-12-22T04:44:17;12.13;;;5.85;;
69246;SDS011;56358;56.328;43.992;2023-12-22T04:46:17;12.43;;;5.72;;
69246;SDS011;56358;56.328;43.992;2023-12-22T04:48:18;13.43;;;6.15;;
69246;SDS011;56358;56.328;43.992;2023-12-22T04:50:19;12.63;;;6.05;;
69246;SDS011;56358;56.328;43.992;2023-12-22T04:52:20;11.90;;;5.43;;
69246;SDS011;56358;56.328;43.992;2023-12-22T04:54:20;14.80;;;5.88;;
69246;SDS011;56358;56.328;43.992;2023-12-22T04:56:21;12.82;;;5.97;;
69246;SDS011;56358;56.328;43.992;2023-12-22T04:58:22;13.02;;;5.80;;
69246;SDS011;56358;56.328;43.992;2023-12-22T05:00:22;14.65;;;6.30;;
69246;SDS011;56358;56.328;43.992;2023-12-22T05:02:24;16.20;;;6.85;;
69246;SDS011;56358;56.328;43.992;2023-12-22T05:04:24;13.60;;;6.00;;
69246;SDS011;56358;56.328;43.992;2023-12-22T05:06:25;13.10;;;5.75;;
69246;SDS011;56358;56.328;43.992;2023-12-22T05:08:26;12.40;;;5.32;;
69246;SDS011;56358;56.328;43.992;2023-12-22T05:10:26;18.55;;;6.50;;
69246;SDS011;56358;56.328;43.992;2023-12-22T05:12:27;13.43;;;6.22;;
69246;SDS011;56358;56.328;43.992;2023-12-22T05:14:28;14.55;;;5.57;;
69246;SDS011;56358;56.328;43.992;2023-12-22T05:16:29;12.10;;;5.78;;
69246;SDS011;56358;56.328;43.992;2023-12-22T05:18:31;16.50;;;5.47;;
69246;SDS011;56358;56.328;43.992;2023-12-22T05:20:32;10.52;;;4.82;;
69246;SDS011;56358;56.328;43.992;2023-12-22T05:22:32;11.45;;;5.45;;
69246;SDS011;56358;56.328;43.992;2023-12-22T05:24:33;13.27;;;5.20;;
69246;SDS011;56358;56.328;43.992;2023-12-22T05:26:34;11.27;;;5.18;;
69246;SDS011;56358;56.328;43.992;2023-12-22T05:28:35;11.98;;;5.25;;
69246;SDS011;56358;56.328;43.992;2023-12-22T05:30:35;13.07;;;5.40;;
69246;SDS011;56358;56.328;43.992;2023-12-22T05:32:36;17.98;;;5.88;;
69246;SDS011;56358;56.328;43.992;2023-12-22T05:34:37;12.38;;;5.38;;
69246;SDS011;56358;56.328;43.992;2023-12-22T05:36:38;11.98;;;5.72;;
69246;SDS011;56358;56.328;43.992;2023-12-22T05:38:38;11.90;;;5.80;;
69246;SDS011;56358;56.328;43.992;2023-12-22T05:40:40;11.82;;;5.20;;
69246;SDS011;56358;56.328;43.992;2023-12-22T05:42:40;12.93;;;5.88;;
69246;SDS011;56358;56.328;43.992;2023-12-22T05:44:41;12.65;;;5.10;;
69246;SDS011;56358;56.328;43.992;2023-12-22T05:46:42;13.43;;;5.80;;
69246;SDS011;56358;56.328;43.992;2023-12-22T05:48:42;14.05;;;5.53;;
69246;SDS011;56358;56.328;43.992;2023-12-22T05:50:43;16.75;;;6.15;;
69246;SDS011;56358;56.328;43.992;2023-12-22T05:52:44;12.40;;;5.70;;
69246;SDS011;56358;56.328;43.992;2023-12-22T05:54:45;13.10;;;5.95;;
69246;SDS011;56358;56.328;43.992;2023-12-22T05:56:46;18.25;;;6.60;;
69246;SDS011;56358;56.328;43.992;2023-12-22T05:58:48;13.65;;;6.45;;
69246;SDS011;56358;56.328;43.992;2023-12-22T06:00:49;12.02;;;6.30;;
69246;SDS011;56358;56.328;43.992;2023-12-22T06:02:50;14.02;;;6.68;;
69246;SDS011;56358;56.328;43.992;2023-12-22T06:04:50;13.82;;;6.88;;
69246;SDS011;56358;56.328;43.992;2023-12-22T06:06:51;14.93;;;6.72;;
69246;SDS011;56358;56.328;43.992;2023-12-22T06:08:52;12.18;;;6.43;;
69246;SDS011;56358;56.328;43.992;2023-12-22T06:10:53;16.80;;;7.47;;
69246;SDS011;56358;56.328;43.992;2023-12-22T06:12:53;14.43;;;6.47;;
69246;SDS011;56358;56.328;43.992;2023-12-22T06:14:54;12.63;;;6.38;;
69246;SDS011;56358;56.328;43.992;2023-12-22T06:16:55;13.57;;;6.25;;
69246;SDS011;56358;56.328;43.992;2023-12-22T06:18:58;19.23;;;7.60;;
69246;SDS011;56358;56.328;43.992;2023-12-22T06:20:58;13.52;;;5.93;;
69246;SDS011;56358;56.328;43.992;2023-12-22T06:22:59;16.90;;;7.10;;
69246;SDS011;56358;56.328;43.992;2023-12-22T06:25:00;12.55;;;6.07;;
69246;SDS011;56358;56.328;43.992;2023-12-22T06:27:04;12.77;;;6.57;;
69246;SDS011;56358;56.328;43.992;2023-12-22T06:29:07;17.40;;;6.60;;
69246;SDS011;56358;56.328;43.992;2023-12-22T06:31:08;13.40;;;6.63;;
69246;SDS011;56358;56.328;43.992;2023-12-22T06:33:18;11.55;;;5.78;;
69246;SDS011;56358;56.328;43.992;2023-12-22T06:35:19;14.27;;;6.22;;
69246;SDS011;56358;56.328;43.992;2023-12-22T06:37:23;15.02;;;6.30;;
69246;SDS011;56358;56.328;43.992;2023-12-22T06:39:24;17.80;;;6.22;;
69246;SDS011;56358;56.328;43.992;2023-12-22T06:41:25;14.02;;;6.05;;
69246;SDS011;56358;56.328;43.992;2023-12-22T06:43:30;11.25;;;5.78;;
69246;SDS011;56358;56.328;43.992;2023-12-22T06:45:31;16.40;;;5.65;;
69246;SDS011;56358;56.328;43.992;2023-12-22T06:47:31;15.00;;;5.60;;
69246;SDS011;56358;56.328;43.992;2023-12-22T06:49:32;13.35;;;5.60;;
69246;SDS011;56358;56.328;43.992;2023-12-22T06:51:33;14.45;;;6.60;;
69246;SDS011;56358;56.328;43.992;2023-12-22T06:53:37;15.77;;;7.15;;
69246;SDS011;56358;56.328;43.992;2023-12-22T06:55:37;13.57;;;6.50;;
69246;SDS011;56358;56.328;43.992;2023-12-22T06:57:38;14.68;;;6.50;;
69246;SDS011;56358;56.328;43.992;2023-12-22T06:59:39;14.02;;;6.60;;
69246;SDS011;56358;56.328;43.992;2023-12-22T07:01:40;15.90;;;6.05;;
69246;SDS011;56358;56.328;43.992;2023-12-22T07:03:40;14.63;;;6.22;;
69246;SDS011;56358;56.328;43.992;2023-12-22T07:05:41;17.10;;;6.97;;
69246;SDS011;56358;56.328;43.992;2023-12-22T07:07:42;23.27;;;10.38;;
69246;SDS011;56358;56.328;43.992;2023-12-22T07:09:42;38.03;;;15.50;;
69246;SDS011;56358;56.328;43.992;2023-12-22T07:11:47;15.77;;;7.57;;
69246;SDS011;56358;56.328;43.992;2023-12-22T07:13:50;21.40;;;9.38;;
69246;SDS011;56358;56.328;43.992;2023-12-22T07:15:51;33.42;;;15.45;;
69246;SDS011;56358;56.328;43.992;2023-12-22T07:17:51;19.75;;;8.50;;
69246;SDS011;56358;56.328;43.992;2023-12-22T07:19:52;16.55;;;7.53;;
69246;SDS011;56358;56.328;43.992;2023-12-22T07:21:53;23.50;;;10.57;;
69246;SDS011;56358;56.328;43.992;2023-12-22T07:23:53;19.00;;;9.25;;
69246;SDS011;56358;56.328;43.992;2023-12-22T07:25:54;22.40;;;9.57;;
69246;SDS011;56358;56.328;43.992;2023-12-22T07:27:55;19.58;;;9.65;;
69246;SDS011;56358;56.328;43.992;2023-12-22T07:29:56;21.05;;;10.68;;
69246;SDS011;56358;56.328;43.992;2023-12-22T07:31:56;21.67;;;10.30;;
69246;SDS011;56358;56.328;43.992;2023-12-22T07:33:57;18.40;;;8.70;;
69246;SDS011;56358;56.328;43.992;2023-12-22T07:35:58;18.73;;;9.98;;
69246;SDS011;56358;56.328;43.992;2023-12-22T07:37:58;17.73;;;8.50;;
69246;SDS011;56358;56.328;43.992;2023-12-22T07:39:59;18.85;;;7.28;;
69246;SDS011;56358;56.328;43.992;2023-12-22T07:42:00;17.60;;;7.47;;
69246;SDS011;56358;56.328;43.992;2023-12-22T07:44:01;13.35;;;6.50;;
69246;SDS011;56358;56.328;43.992;2023-12-22T07:46:02;15.32;;;6.30;;
69246;SDS011;56358;56.328;43.992;2023-12-22T07:48:03;16.60;;;6.82;;
69246;SDS011;56358;56.328;43.992;2023-12-22T07:50:04;13.95;;;6.60;;
69246;SDS011;56358;56.328;43.992;2023-12-22T07:52:08;14.40;;;6.75;;
69246;SDS011;56358;56.328;43.992;2023-12-22T07:54:09;14.98;;;7.03;;
69246;SDS011;56358;56.328;43.992;2023-12-22T07:56:10;15.32;;;6.22;;
69246;SDS011;56358;56.328;43.992;2023-12-22T07:58:11;8.93;;;4.18;;
69246;SDS011;56358;56.328;43.992;2023-12-22T08:00:12;13.38;;;5.88;;
69246;SDS011;56358;56.328;43.992;2023-12-22T08:02:13;11.90;;;5.22;;
69246;SDS011;56358;56.328;43.992;2023-12-22T08:04:14;11.40;;;5.25;;
69246;SDS011;56358;56.328;43.992;2023-12-22T08:06:14;10.27;;;4.85;;
69246;SDS011;56358;56.328;43.992;2023-12-22T08:08:15;13.18;;;5.57;;
69246;SDS011;56358;56.328;43.992;2023-12-22T08:10:16;11.07;;;5.47;;
69246;SDS011;56358;56.328;43.992;2023-12-22T08:14:19;11.63;;;5.10;;
69246;SDS011;56358;56.328;43.992;2023-12-22T08:16:20;13.32;;;6.20;;
69246;SDS011;56358;56.328;43.992;2023-12-22T08:18:21;12.70;;;5.22;;
69246;SDS011;56358;56.328;43.992;2023-12-22T08:20:21;10.98;;;5.25;;
69246;SDS011;56358;56.328;43.992;2023-12-22T08:22:22;13.23;;;5.53;;
69246;SDS011;56358;56.328;43.992;2023-12-22T08:24:23;9.35;;;5.43;;
69246;SDS011;56358;56.328;43.992;2023-12-22T08:26:24;12.27;;;5.88;;
69246;SDS011;56358;56.328;43.992;2023-12-22T08:28:25;11.27;;;5.57;;
69246;SDS011;56358;56.328;43.992;2023-12-22T08:30:26;15.60;;;6.55;;
69246;SDS011;56358;56.328;43.992;2023-12-22T08:32:27;11.50;;;5.97;;
69246;SDS011;56358;56.328;43.992;2023-12-22T08:34:28;13.20;;;5.32;;
69246;SDS011;56358;56.328;43.992;2023-12-22T08:36:28;14.35;;;6.05;;
69246;SDS011;56358;56.328;43.992;2023-12-22T08:38:29;10.52;;;5.70;;
69246;SDS011;56358;56.328;43.992;2023-12-22T08:40:30;10.77;;;5.68;;
69246;SDS011;56358;56.328;43.992;2023-12-22T08:42:31;19.17;;;8.32;;
69246;SDS011;56358;56.328;43.992;2023-12-22T08:44:31;10.10;;;5.20;;
69246;SDS011;56358;56.328;43.992;2023-12-22T08:46:32;13.73;;;5.40;;
69246;SDS011;56358;56.328;43.992;2023-12-22T08:48:34;13.75;;;5.35;;
69246;SDS011;56358;56.328;43.992;2023-12-22T08:50:35;12.65;;;5.78;;
69246;SDS011;56358;56.328;43.992;2023-12-22T08:52:36;18.77;;;7.90;;
69246;SDS011;56358;56.328;43.992;2023-12-22T08:54:36;12.00;;;5.30;;
69246;SDS011;56358;56.328;43.992;2023-12-22T08:56:37;15.85;;;5.03;;
69246;SDS011;56358;56.328;43.992;2023-12-22T08:58:38;12.63;;;5.40;;
69246;SDS011;56358;56.328;43.992;2023-12-22T09:00:38;14.77;;;5.20;;
69246;SDS011;56358;56.328;43.992;2023-12-22T09:02:40;11.55;;;5.32;;
69246;SDS011;56358;56.328;43.992;2023-12-22T09:04:41;13.18;;;6.00;;
69246;SDS011;56358;56.328;43.992;2023-12-22T09:06:42;12.40;;;5.00;;
69246;SDS011;56358;56.328;43.992;2023-12-22T09:08:42;14.07;;;5.78;;
69246;SDS011;56358;56.328;43.992;2023-12-22T09:10:46;18.33;;;6.88;;
69246;SDS011;56358;56.328;43.992;2023-12-22T09:12:47;13.20;;;5.68;;
69246;SDS011;56358;56.328;43.992;2023-12-22T09:14:49;12.52;;;6.22;;
69246;SDS011;56358;56.328;43.992;2023-12-22T09:16:50;17.00;;;5.93;;
69246;SDS011;56358;56.328;43.992;2023-12-22T09:18:51;14.27;;;6.15;;
69246;SDS011;56358;56.328;43.992;2023-12-22T09:20:52;15.10;;;6.05;;
69246;SDS011;56358;56.328;43.992;2023-12-22T09:22:52;13.50;;;5.47;;
69246;SDS011;56358;56.328;43.992;2023-12-22T09:24:53;15.68;;;5.97;;
69246;SDS011;56358;56.328;43.992;2023-12-22T09:26:54;14.65;;;6.60;;
69246;SDS011;56358;56.328;43.992;2023-12-22T09:28:55;17.40;;;5.85;;
69246;SDS011;56358;56.328;43.992;2023-12-22T09:30:55;16.02;;;6.20;;
69246;SDS011;56358;56.328;43.992;2023-12-22T09:32:56;14.00;;;5.30;;
69246;SDS011;56358;56.328;43.992;2023-12-22T09:34:57;12.95;;;5.53;;
69246;SDS011;56358;56.328;43.992;2023-12-22T09:36:59;14.00;;;5.73;;
69246;SDS011;56358;56.328;43.992;2023-12-22T09:39:00;16.70;;;5.97;;
69246;SDS011;56358;56.328;43.992;2023-12-22T09:41:00;12.90;;;5.75;;
69246;SDS011;56358;56.328;43.992;2023-12-22T09:43:02;13.35;;;5.60;;
69246;SDS011;56358;56.328;43.992;2023-12-22T09:45:05;12.70;;;5.50;;
69246;SDS011;56358;56.328;43.992;2023-12-22T09:47:09;15.75;;;5.65;;
69246;SDS011;56358;56.328;43.992;2023-12-22T09:49:12;12.48;;;5.38;;
69246;SDS011;56358;56.328;43.992;2023-12-22T09:51:14;13.80;;;5.40;;
69246;SDS011;56358;56.328;43.992;2023-12-22T09:53:18;13.15;;;5.63;;
69246;SDS011;56358;56.328;43.992;2023-12-22T09:55:24;14.73;;;6.28;;
69246;SDS011;56358;56.328;43.992;2023-12-22T09:57:27;17.67;;;6.32;;
69246;SDS011;56358;56.328;43.992;2023-12-22T09:59:29;13.65;;;5.78;;
69246;SDS011;56358;56.328;43.992;2023-12-22T10:01:31;14.05;;;6.38;;
69246;SDS011;56358;56.328;43.992;2023-12-22T10:03:33;14.05;;;6.00;;
69246;SDS011;56358;56.328;43.992;2023-12-22T10:05:34;11.65;;;5.80;;
69246;SDS011;56358;56.328;43.992;2023-12-22T10:07:35;13.15;;;5.18;;
69246;SDS011;56358;56.328;43.992;2023-12-22T10:09:37;11.48;;;5.70;;
69246;SDS011;56358;56.328;43.992;2023-12-22T10:11:37;12.30;;;5.60;;
69246;SDS011;56358;56.328;43.992;2023-12-22T10:13:40;9.98;;;4.97;;
69246;SDS011;56358;56.328;43.992;2023-12-22T10:15:42;12.05;;;5.63;;
69246;SDS011;56358;56.328;43.992;2023-12-22T10:17:45;14.98;;;5.78;;
69246;SDS011;56358;56.328;43.992;2023-12-22T10:19:46;13.70;;;6.07;;
69246;SDS011;56358;56.328;43.992;2023-12-22T10:21:50;12.23;;;5.47;;
69246;SDS011;56358;56.328;43.992;2023-12-22T10:23:51;11.50;;;6.20;;
69246;SDS011;56358;56.328;43.992;2023-12-22T10:25:52;14.90;;;5.90;;
69246;SDS011;56358;56.328;43.992;2023-12-22T10:27:52;11.13;;;5.78;;
69246;SDS011;56358;56.328;43.992;2023-12-22T10:29:55;12.82;;;5.88;;
69246;SDS011;56358;56.328;43.992;2023-12-22T10:31:57;8.90;;;4.35;;
69246;SDS011;56358;56.328;43.992;2023-12-22T10:33:58;11.40;;;5.15;;
69246;SDS011;56358;56.328;43.992;2023-12-22T10:35:59;11.02;;;4.60;;
69246;SDS011;56358;56.328;43.992;2023-12-22T10:38:00;9.77;;;4.22;;
69246;SDS011;56358;56.328;43.992;2023-12-22T10:40:03;9.27;;;4.28;;
69246;SDS011;56358;56.328;43.992;2023-12-22T10:42:05;8.90;;;4.22;;
69246;SDS011;56358;56.328;43.992;2023-12-22T10:44:06;16.00;;;6.45;;
69246;SDS011;56358;56.328;43.992;2023-12-22T10:46:07;12.45;;;4.93;;
69246;SDS011;56358;56.328;43.992;2023-12-22T10:48:08;10.55;;;5.15;;
69246;SDS011;56358;56.328;43.992;2023-12-22T10:50:13;9.82;;;4.82;;
69246;SDS011;56358;56.328;43.992;2023-12-22T10:52:15;10.32;;;5.03;;
69246;SDS011;56358;56.328;43.992;2023-12-22T10:54:21;12.38;;;4.78;;
69246;SDS011;56358;56.328;43.992;2023-12-22T10:56:21;9.75;;;4.88;;
69246;SDS011;56358;56.328;43.992;2023-12-22T10:58:22;12.63;;;6.00;;
69246;SDS011;56358;56.328;43.992;2023-12-22T11:00:23;15.10;;;6.95;;
69246;SDS011;56358;56.328;43.992;2023-12-22T11:02:26;14.02;;;7.45;;
69246;SDS011;56358;56.328;43.992;2023-12-22T11:04:29;12.85;;;6.70;;
69246;SDS011;56358;56.328;43.992;2023-12-22T11:06:35;15.88;;;7.53;;
69246;SDS011;56358;56.328;43.992;2023-12-22T11:08:37;14.63;;;6.47;;
69246;SDS011;56358;56.328;43.992;2023-12-22T11:10:42;13.25;;;6.65;;
69246;SDS011;56358;56.328;43.992;2023-12-22T11:12:44;13.02;;;5.88;;
69246;SDS011;56358;56.328;43.992;2023-12-22T11:14:48;11.63;;;6.18;;
69246;SDS011;56358;56.328;43.992;2023-12-22T11:16:51;10.60;;;5.40;;
69246;SDS011;56358;56.328;43.992;2023-12-22T11:18:54;11.25;;;5.38;;
69246;SDS011;56358;56.328;43.992;2023-12-22T11:20:56;14.00;;;7.30;;
69246;SDS011;56358;56.328;43.992;2023-12-22T11:22:57;15.10;;;6.80;;
69246;SDS011;56358;56.328;43.992;2023-12-22T11:24:59;16.27;;;7.57;;
69246;SDS011;56358;56.328;43.992;2023-12-22T11:27:06;21.98;;;9.57;;
69246;SDS011;56358;56.328;43.992;2023-12-22T11:29:09;23.77;;;10.15;;
69246;SDS011;56358;56.328;43.992;2023-12-22T11:31:10;34.88;;;14.38;;
69246;SDS011;56358;56.328;43.992;2023-12-22T11:33:12;19.25;;;8.90;;
69246;SDS011;56358;56.328;43.992;2023-12-22T11:35:13;19.70;;;9.07;;
69246;SDS011;56358;56.328;43.992;2023-12-22T11:37:15;18.38;;;7.70;;
69246;SDS011;56358;56.328;43.992;2023-12-22T11:39:16;15.90;;;7.95;;
69246;SDS011;56358;56.328;43.992;2023-12-22T11:41:18;18.67;;;8.60;;
69246;SDS011;56358;56.328;43.992;2023-12-22T11:43:21;18.05;;;7.72;;
69246;SDS011;56358;56.328;43.992;2023-12-22T11:45:22;15.55;;;7.40;;
69246;SDS011;56358;56.328;43.992;2023-12-22T11:47:24;19.20;;;7.95;;
69246;SDS011;56358;56.328;43.992;2023-12-22T11:49:37;16.70;;;7.38;;
69246;SDS011;56358;56.328;43.992;2023-12-22T11:51:38;15.52;;;7.47;;
69246;SDS011;56358;56.328;43.992;2023-12-22T11:53:39;18.60;;;7.53;;
69246;SDS011;56358;56.328;43.992;2023-12-22T11:55:59;16.50;;;7.28;;